Time;durP1;ratioP1;P1;durP2;ratioP2;P2;SDS_P1;SDS_P2;PMS_P1;PMS_P2;Temp;Humidity;BMP_temperature;BMP_pressure;BME280_temperature;BME280_humidity;BME280_pressure;Samples;Min_cycle;Max_cycle;Signal;HPM_P1;HPM_P2
2023/08/20 00:01:35;;;;;;;12.90;9.77;;;;;;;;;;5033881;28;20408;-69
2023/08/20 00:04:02;;;;;;;12.13;9.65;;;;;;;;;;5051815;28;20373;-69
2023/08/20 00:06:28;;;;;;;12.77;9.63;;;;;;;;;;5034113;28;20370;-68
2023/08/20 00:08:54;;;;;;;12.38;9.77;;;;;;;;;;5051946;28;20926;-69
2023/08/20 00:11:20;;;;;;;15.00;9.88;;;;;;;;;;5052332;28;20443;-69
2023/08/20 00:13:46;;;;;;;14.40;9.93;;;;;;;;;;5051663;28;20419;-69
2023/08/20 00:16:12;;;;;;;20.93;15.03;;;;;;;;;;5033878;28;20910;-68
2023/08/20 00:18:39;;;;;;;21.83;16.75;;;;;;;;;;5033524;28;20385;-69
2023/08/20 00:21:05;;;;;;;21.40;15.23;;;;;;;;;;5051649;28;20377;-69
2023/08/20 00:23:31;;;;;;;19.55;15.07;;;;;;;;;;5033667;28;20382;-68
2023/08/20 00:25:57;;;;;;;16.67;10.15;;;;;;;;;;5051533;28;20385;-69
2023/08/20 00:28:23;;;;;;;21.98;14.93;;;;;;;;;;5037286;28;20365;-69
2023/08/20 00:30:49;;;;;;;19.20;14.80;;;;;;;;;;5055826;28;20395;-69
2023/08/20 00:33:15;;;;;;;14.48;10.85;;;;;;;;;;5037830;28;20423;-69
2023/08/20 00:35:41;;;;;;;13.43;8.82;;;;;;;;;;5037686;28;20381;-68
2023/08/20 00:38:07;;;;;;;12.02;9.55;;;;;;;;;;5055693;28;20408;-69
2023/08/20 00:40:33;;;;;;;11.57;8.77;;;;;;;;;;5055332;28;20405;-69
2023/08/20 00:42:59;;;;;;;12.55;9.20;;;;;;;;;;5037364;28;20408;-68
2023/08/20 00:45:27;;;;;;;13.43;8.68;;;;;;;;;;5037453;28;20397;-68
2023/08/20 00:47:53;;;;;;;10.00;8.60;;;;;;;;;;5037228;28;20879;-68
2023/08/20 00:50:19;;;;;;;10.75;9.57;;;;;;;;;;5037220;28;20897;-67
2023/08/20 00:52:46;;;;;;;12.20;9.48;;;;;;;;;;5037454;28;20393;-67
2023/08/20 00:55:15;;;;;;;14.25;10.45;;;;;;;;;;5055397;28;20798;-68
2023/08/20 00:57:42;;;;;;;10.85;9.68;;;;;;;;;;5038023;28;20404;-68
2023/08/20 01:00:09;;;;;;;10.80;9.70;;;;;;;;;;5055036;28;20752;-68
2023/08/20 01:02:35;;;;;;;14.43;10.32;;;;;;;;;;5036987;28;20403;-68
2023/08/20 01:05:02;;;;;;;13.85;10.07;;;;;;;;;;5055869;28;20419;-68
2023/08/20 01:07:52;;;;;;;11.32;10.00;;;;;;;;;;5037575;28;20826;-69
2023/08/20 01:10:22;;;;;;;11.55;10.00;;;;;;;;;;5047360;28;20392;-69
2023/08/20 01:12:48;;;;;;;14.68;10.30;;;;;;;;;;5055057;28;20417;-68
2023/08/20 01:15:14;;;;;;;12.60;10.07;;;;;;;;;;5037446;28;20396;-69
2023/08/20 01:17:41;;;;;;;12.57;9.90;;;;;;;;;;5055148;28;20405;-69
2023/08/20 01:20:08;;;;;;;11.03;9.60;;;;;;;;;;5055071;28;20401;-69
2023/08/20 01:22:47;;;;;;;13.77;10.60;;;;;;;;;;5054733;28;20876;-68
2023/08/20 01:25:31;;;;;;;14.68;11.75;;;;;;;;;;5036711;28;20945;-68
2023/08/20 01:27:57;;;;;;;13.48;10.35;;;;;;;;;;5054997;28;20739;-68
2023/08/20 01:30:24;;;;;;;12.00;9.43;;;;;;;;;;5036587;28;20386;-68
2023/08/20 01:32:51;;;;;;;11.90;9.50;;;;;;;;;;5055104;28;20388;-67
2023/08/20 01:35:17;;;;;;;13.38;9.63;;;;;;;;;;5054494;28;20860;-68
2023/08/20 01:37:44;;;;;;;15.90;9.70;;;;;;;;;;5036255;28;20386;-68
2023/08/20 01:40:10;;;;;;;13.15;11.20;;;;;;;;;;5036419;28;20377;-67
2023/08/20 01:42:39;;;;;;;12.38;9.63;;;;;;;;;;5054316;28;20891;-67
2023/08/20 01:45:06;;;;;;;11.85;10.30;;;;;;;;;;5054606;28;20374;-68
2023/08/20 01:47:32;;;;;;;12.40;10.03;;;;;;;;;;5054166;28;20855;-68
2023/08/20 01:49:58;;;;;;;11.02;9.93;;;;;;;;;;5054208;28;20385;-68
2023/08/20 01:52:24;;;;;;;14.20;10.50;;;;;;;;;;5054038;28;20385;-68
2023/08/20 01:54:50;;;;;;;12.60;10.13;;;;;;;;;;5054031;28;20435;-68
2023/08/20 01:57:16;;;;;;;12.75;10.98;;;;;;;;;;5054145;28;20431;-68
2023/08/20 01:59:43;;;;;;;13.63;10.80;;;;;;;;;;5054476;28;20727;-68
2023/08/20 02:02:09;;;;;;;13.43;10.80;;;;;;;;;;5054348;28;20409;-68
2023/08/20 02:04:35;;;;;;;14.23;12.10;;;;;;;;;;5054238;28;20931;-68
2023/08/20 02:07:01;;;;;;;12.88;11.20;;;;;;;;;;5036591;28;20425;-68
2023/08/20 02:09:27;;;;;;;12.43;11.13;;;;;;;;;;5036554;28;20875;-68
2023/08/20 02:11:53;;;;;;;17.77;11.18;;;;;;;;;;5054581;28;20402;-68
2023/08/20 02:14:19;;;;;;;11.73;10.52;;;;;;;;;;5054595;28;20381;-68
2023/08/20 02:16:46;;;;;;;13.85;10.98;;;;;;;;;;5036475;28;20382;-68
2023/08/20 02:19:13;;;;;;;13.32;10.65;;;;;;;;;;5036072;28;20385;-68
2023/08/20 02:21:39;;;;;;;11.77;10.43;;;;;;;;;;5054563;28;20405;-68
2023/08/20 02:24:06;;;;;;;12.48;10.45;;;;;;;;;;5036422;28;20392;-68
2023/08/20 02:26:32;;;;;;;16.33;11.03;;;;;;;;;;5054379;28;20409;-67
2023/08/20 02:28:57;;;;;;;12.43;11.00;;;;;;;;;;5036537;28;20396;-68
2023/08/20 02:31:23;;;;;;;13.23;10.00;;;;;;;;;;5036530;28;20381;-68
2023/08/20 02:33:50;;;;;;;14.23;10.30;;;;;;;;;;5054136;28;20729;-67
2023/08/20 02:36:16;;;;;;;14.18;10.68;;;;;;;;;;5035980;28;20810;-67
2023/08/20 02:38:42;;;;;;;14.00;10.82;;;;;;;;;;5053347;28;20378;-67
2023/08/20 02:41:07;;;;;;;12.10;10.70;;;;;;;;;;5053556;28;20388;-67
2023/08/20 02:43:33;;;;;;;13.17;10.77;;;;;;;;;;5053442;28;20438;-67
2023/08/20 02:45:59;;;;;;;14.07;10.20;;;;;;;;;;5053426;28;20524;-68
2023/08/20 02:48:26;;;;;;;14.65;10.52;;;;;;;;;;5035403;28;20380;-69
2023/08/20 02:50:54;;;;;;;12.35;10.38;;;;;;;;;;5052530;28;20743;-68
2023/08/20 02:53:20;;;;;;;14.93;10.30;;;;;;;;;;5035474;28;20385;-68
2023/08/20 02:55:46;;;;;;;14.13;10.20;;;;;;;;;;5035336;28;20472;-67
2023/08/20 02:58:12;;;;;;;15.52;9.95;;;;;;;;;;5053364;28;20755;-68
2023/08/20 03:00:38;;;;;;;12.15;9.55;;;;;;;;;;5035230;28;20382;-68
2023/08/20 03:03:07;;;;;;;12.15;10.00;;;;;;;;;;5052970;28;20466;-68
2023/08/20 03:05:33;;;;;;;13.63;9.63;;;;;;;;;;5052992;28;20445;-68
2023/08/20 03:07:59;;;;;;;13.02;9.40;;;;;;;;;;5052817;28;20416;-68
2023/08/20 03:10:25;;;;;;;14.75;9.98;;;;;;;;;;5052827;28;20377;-68
2023/08/20 03:12:51;;;;;;;13.65;9.90;;;;;;;;;;5052546;28;20417;-68
2023/08/20 03:15:17;;;;;;;13.18;10.15;;;;;;;;;;5052762;28;20385;-68
2023/08/20 03:17:44;;;;;;;12.57;10.18;;;;;;;;;;5034700;28;20381;-68
2023/08/20 03:20:11;;;;;;;11.25;9.68;;;;;;;;;;5052532;28;20409;-68
2023/08/20 03:22:38;;;;;;;12.97;9.60;;;;;;;;;;5052745;28;20910;-69
2023/08/20 03:25:04;;;;;;;13.65;10.32;;;;;;;;;;5052994;28;20517;-68
2023/08/20 03:27:30;;;;;;;13.82;10.02;;;;;;;;;;5053926;28;20887;-68
2023/08/20 03:29:56;;;;;;;9.80;8.80;;;;;;;;;;5055270;28;20198;-68
2023/08/20 03:32:22;;;;;;;12.48;10.57;;;;;;;;;;5053139;28;20437;-68
2023/08/20 03:34:48;;;;;;;14.82;10.55;;;;;;;;;;5053424;28;20497;-68
2023/08/20 03:37:14;;;;;;;15.73;10.50;;;;;;;;;;5053520;28;20389;-68
2023/08/20 03:39:40;;;;;;;13.35;10.55;;;;;;;;;;5052860;28;20389;-68
2023/08/20 03:42:06;;;;;;;15.00;11.27;;;;;;;;;;5052828;28;20471;-68
2023/08/20 03:44:32;;;;;;;16.60;11.70;;;;;;;;;;5052502;28;20470;-68
2023/08/20 03:46:58;;;;;;;13.32;11.02;;;;;;;;;;5052239;28;20774;-68
2023/08/20 03:49:24;;;;;;;14.85;11.40;;;;;;;;;;5053464;28;20917;-68
2023/08/20 03:51:50;;;;;;;13.88;11.30;;;;;;;;;;5034316;28;20386;-68
2023/08/20 03:54:16;;;;;;;15.93;10.95;;;;;;;;;;5052294;28;20876;-68
2023/08/20 03:56:42;;;;;;;13.17;10.83;;;;;;;;;;5034426;28;20492;-68
2023/08/20 03:59:08;;;;;;;16.05;10.93;;;;;;;;;;5052252;28;20393;-69
2023/08/20 04:01:36;;;;;;;14.45;11.38;;;;;;;;;;5033939;28;20433;-68
2023/08/20 04:04:03;;;;;;;15.93;11.88;;;;;;;;;;5056089;28;20404;-68
2023/08/20 04:06:29;;;;;;;13.40;11.70;;;;;;;;;;5063950;28;20456;-68
2023/08/20 04:08:54;;;;;;;15.43;12.35;;;;;;;;;;5034708;28;20413;-68
2023/08/20 04:11:20;;;;;;;13.32;11.93;;;;;;;;;;5052710;28;20374;-67
2023/08/20 04:13:46;;;;;;;15.57;11.80;;;;;;;;;;5052144;28;20393;-67
2023/08/20 04:16:13;;;;;;;14.25;11.00;;;;;;;;;;5034382;28;20386;-68
2023/08/20 04:18:39;;;;;;;16.43;10.60;;;;;;;;;;5053157;28;20167;-68
2023/08/20 04:21:05;;;;;;;12.67;10.90;;;;;;;;;;5035810;28;20166;-71
2023/08/20 04:23:31;;;;;;;14.33;10.50;;;;;;;;;;5053167;28;20210;-68
2023/08/20 04:25:57;;;;;;;15.05;11.30;;;;;;;;;;5052380;28;20377;-68
2023/08/20 04:28:23;;;;;;;12.90;10.93;;;;;;;;;;5051939;28;20381;-68
2023/08/20 04:30:53;;;;;;;13.97;9.77;;;;;;;;;;5053592;28;20194;-68
2023/08/20 04:33:19;;;;;;;11.27;10.00;;;;;;;;;;5052907;28;20166;-68
2023/08/20 04:35:45;;;;;;;17.13;10.20;;;;;;;;;;5052765;28;20175;-68
2023/08/20 04:38:11;;;;;;;15.50;10.07;;;;;;;;;;5052551;28;20182;-69
2023/08/20 04:40:37;;;;;;;12.63;9.87;;;;;;;;;;5052666;28;20217;-68
2023/08/20 04:43:03;;;;;;;12.07;9.80;;;;;;;;;;5034821;28;20659;-67
2023/08/20 04:45:29;;;;;;;17.25;11.77;;;;;;;;;;5052184;28;20386;-69
2023/08/20 04:47:55;;;;;;;12.60;9.90;;;;;;;;;;5052550;28;20596;-69
2023/08/20 04:50:21;;;;;;;14.23;9.97;;;;;;;;;;5052567;28;20581;-68
2023/08/20 04:52:47;;;;;;;16.00;10.90;;;;;;;;;;5052496;28;20265;-71
2023/08/20 04:55:15;;;;;;;14.00;10.80;;;;;;;;;;5052507;28;20587;-68
2023/08/20 04:57:41;;;;;;;14.80;12.20;;;;;;;;;;5052434;28;20167;-68
2023/08/20 05:00:09;;;;;;;12.07;10.37;;;;;;;;;;5052533;28;20191;-68
2023/08/20 05:02:35;;;;;;;15.07;10.43;;;;;;;;;;5034364;28;20230;-69
2023/08/20 05:05:02;;;;;;;17.80;11.13;;;;;;;;;;5034552;28;20644;-68
2023/08/20 05:07:28;;;;;;;17.60;12.65;;;;;;;;;;5051143;28;20385;-68
2023/08/20 05:09:54;;;;;;;14.43;11.30;;;;;;;;;;5034370;28;20194;-68
2023/08/20 05:12:20;;;;;;;17.50;11.50;;;;;;;;;;5052368;28;20213;-68
2023/08/20 05:14:45;;;;;;;20.27;11.63;;;;;;;;;;5056559;28;20612;-69
2023/08/20 05:17:11;;;;;;;15.80;10.57;;;;;;;;;;5056244;28;20175;-69
2023/08/20 05:19:37;;;;;;;14.00;10.77;;;;;;;;;;5055894;28;20293;-69
2023/08/20 05:22:03;;;;;;;14.83;10.07;;;;;;;;;;5055793;28;20239;-69
2023/08/20 05:24:29;;;;;;;14.57;10.57;;;;;;;;;;5055922;28;20174;-69
2023/08/20 05:27:05;;;;;;;17.60;12.68;;;;;;;;;;5054547;28;20378;-68
2023/08/20 05:29:31;;;;;;;15.47;11.53;;;;;;;;;;5055723;28;20700;-68
2023/08/20 05:31:57;;;;;;;14.67;11.43;;;;;;;;;;5037888;28;20206;-68
2023/08/20 05:34:23;;;;;;;16.33;11.20;;;;;;;;;;5055629;28;20300;-68
2023/08/20 05:36:49;;;;;;;15.80;12.67;;;;;;;;;;5054894;28;20384;-68
2023/08/20 05:39:15;;;;;;;16.25;11.98;;;;;;;;;;5054256;28;20430;-69
2023/08/20 05:41:41;;;;;;;14.03;11.37;;;;;;;;;;5055374;28;20236;-69
2023/08/20 05:44:06;;;;;;;13.70;10.83;;;;;;;;;;5037581;28;20174;-69
2023/08/20 05:46:32;;;;;;;18.03;11.13;;;;;;;;;;5037554;28;20189;-69
2023/08/20 05:48:58;;;;;;;12.77;10.47;;;;;;;;;;5055202;28;20293;-68
2023/08/20 05:51:24;;;;;;;14.37;10.43;;;;;;;;;;5055327;28;20170;-69
2023/08/20 05:53:50;;;;;;;14.70;10.77;;;;;;;;;;5037390;28;20635;-69
2023/08/20 05:56:16;;;;;;;13.70;11.27;;;;;;;;;;5055273;28;20187;-69
2023/08/20 05:58:42;;;;;;;16.73;12.77;;;;;;;;;;5037440;28;20261;-69
2023/08/20 06:01:08;;;;;;;20.73;14.07;;;;;;;;;;5037556;28;20178;-68
2023/08/20 06:03:34;;;;;;;18.37;14.13;;;;;;;;;;5037165;28;20209;-68
2023/08/20 06:06:00;;;;;;;22.13;14.83;;;;;;;;;;5055090;28;20323;-68
2023/08/20 06:08:26;;;;;;;17.57;13.97;;;;;;;;;;5055055;28;20652;-68
2023/08/20 06:10:52;;;;;;;18.90;13.60;;;;;;;;;;5055290;28;20659;-68
2023/08/20 06:13:18;;;;;;;18.17;14.57;;;;;;;;;;5054990;28;20178;-68
2023/08/20 06:15:44;;;;;;;24.17;16.00;;;;;;;;;;5055272;28;20198;-68
2023/08/20 06:18:11;;;;;;;16.80;15.07;;;;;;;;;;5055091;28;20213;-68
2023/08/20 06:20:37;;;;;;;19.10;16.50;;;;;;;;;;5054746;28;20293;-68
2023/08/20 06:23:03;;;;;;;18.57;15.43;;;;;;;;;;5054800;28;20209;-69
2023/08/20 06:25:29;;;;;;;23.80;16.93;;;;;;;;;;5054225;28;20179;-68
2023/08/20 06:27:55;;;;;;;20.73;16.03;;;;;;;;;;5054670;28;20177;-68
2023/08/20 06:30:21;;;;;;;18.97;17.07;;;;;;;;;;5036843;28;20198;-68
2023/08/20 06:32:47;;;;;;;20.13;15.33;;;;;;;;;;5036846;28;20556;-68
2023/08/20 06:35:13;;;;;;;20.67;17.27;;;;;;;;;;5054593;28;20182;-68
2023/08/20 06:37:40;;;;;;;22.30;19.00;;;;;;;;;;5054466;28;20187;-68
2023/08/20 06:40:06;;;;;;;25.90;20.73;;;;;;;;;;5054324;28;20195;-68
2023/08/20 06:42:34;;;;;;;26.70;21.13;;;;;;;;;;5054686;28;20241;-69
2023/08/20 06:45:00;;;;;;;26.23;20.13;;;;;;;;;;5054696;28;20171;-69
2023/08/20 06:47:26;;;;;;;25.13;19.90;;;;;;;;;;5054639;28;20175;-68
2023/08/20 06:49:52;;;;;;;26.05;22.13;;;;;;;;;;5053226;28;20377;-68
2023/08/20 06:52:18;;;;;;;25.90;23.00;;;;;;;;;;5053104;28;20881;-68
2023/08/20 06:54:44;;;;;;;;;;;;;;;;;;5054903;28;20094;-68
2023/08/20 06:57:10;;;;;;;;;;;;;;;;;;5054683;28;19905;-68
2023/08/20 06:59:36;;;;;;;;;;;;;;;;;;5036743;28;19966;-66
2023/08/20 07:02:03;;;;;;;29.60;25.00;;;;;;;;;;5035728;28;20405;-67
2023/08/20 07:04:29;;;;;;;28.45;24.90;;;;;;;;;;5053801;28;20724;-68
2023/08/20 07:06:55;;;;;;;28.52;25.42;;;;;;;;;;5053303;28;20374;-69
2023/08/20 07:09:21;;;;;;;26.10;23.23;;;;;;;;;;5035893;28;20224;-69
2023/08/20 07:11:47;;;;;;;26.10;21.60;;;;;;;;;;5054054;28;20308;-69
2023/08/20 07:14:13;;;;;;;30.07;24.17;;;;;;;;;;5054475;28;20187;-69
2023/08/20 07:16:39;;;;;;;40.37;29.17;;;;;;;;;;5054263;28;20186;-69
2023/08/20 07:19:05;;;;;;;38.43;31.17;;;;;;;;;;5034933;28;20467;-69
2023/08/20 07:21:31;;;;;;;35.33;29.70;;;;;;;;;;5053226;28;20374;-69
2023/08/20 07:23:57;;;;;;;35.70;29.90;;;;;;;;;;5052851;28;20847;-68
2023/08/20 07:26:23;;;;;;;36.47;30.63;;;;;;;;;;5052305;28;20373;-68
2023/08/20 07:28:59;;;;;;;38.35;30.13;;;;;;;;;;5034255;28;20409;-69
2023/08/20 07:31:26;;;;;;;43.35;31.38;;;;;;;;;;5034419;28;20388;-69
2023/08/20 07:33:52;;;;;;;40.92;30.92;;;;;;;;;;5052117;28;20392;-69
2023/08/20 07:36:18;;;;;;;35.92;27.88;;;;;;;;;;5051882;28;20720;-69
2023/08/20 07:38:44;;;;;;;35.58;26.25;;;;;;;;;;5034058;28;20435;-69
2023/08/20 07:41:11;;;;;;;37.03;26.13;;;;;;;;;;5034204;28;20377;-69
2023/08/20 07:43:40;;;;;;;34.45;25.70;;;;;;;;;;5034052;28;20401;-69
2023/08/20 07:46:07;;;;;;;33.72;25.73;;;;;;;;;;5052015;28;20441;-69
2023/08/20 07:48:33;;;;;;;34.85;25.08;;;;;;;;;;5051778;28;20373;-68
2023/08/20 07:50:59;;;;;;;28.25;23.75;;;;;;;;;;5052045;28;20381;-69
2023/08/20 07:53:25;;;;;;;31.17;25.47;;;;;;;;;;5051852;28;20463;-69
2023/08/20 07:55:51;;;;;;;31.30;24.40;;;;;;;;;;5051911;28;20798;-68
2023/08/20 07:58:17;;;;;;;34.13;24.53;;;;;;;;;;5052042;28;20374;-67
2023/08/20 08:00:44;;;;;;;26.53;21.20;;;;;;;;;;5051850;28;20385;-68
2023/08/20 08:03:10;;;;;;;27.92;22.75;;;;;;;;;;5051705;28;20810;-68
2023/08/20 08:05:36;;;;;;;27.58;23.60;;;;;;;;;;5051913;28;20446;-68
2023/08/20 08:08:02;;;;;;;29.80;24.25;;;;;;;;;;5051975;28;20871;-68
2023/08/20 08:10:28;;;;;;;28.17;22.42;;;;;;;;;;5051537;28;20843;-68
2023/08/20 08:12:54;;;;;;;28.40;23.40;;;;;;;;;;5051669;28;20385;-68
2023/08/20 08:15:20;;;;;;;26.47;22.23;;;;;;;;;;5051584;28;20387;-68
2023/08/20 08:17:46;;;;;;;30.17;21.70;;;;;;;;;;5051561;28;20752;-68
2023/08/20 08:20:12;;;;;;;27.73;21.80;;;;;;;;;;5033487;28;20397;-68
2023/08/20 08:22:38;;;;;;;27.17;22.63;;;;;;;;;;5051690;28;20560;-68
2023/08/20 08:25:05;;;;;;;28.25;20.88;;;;;;;;;;5051506;28;20468;-68
2023/08/20 08:27:31;;;;;;;26.00;21.70;;;;;;;;;;5051914;28;20439;-68
2023/08/20 08:29:56;;;;;;;25.70;22.88;;;;;;;;;;5051441;28;20407;-68
2023/08/20 08:32:22;;;;;;;24.30;21.70;;;;;;;;;;5051411;28;20390;-68
2023/08/20 08:34:48;;;;;;;23.02;20.65;;;;;;;;;;5033634;28;20381;-68
2023/08/20 08:37:15;;;;;;;24.02;20.00;;;;;;;;;;5052061;28;20417;-69
2023/08/20 08:39:41;;;;;;;22.05;18.67;;;;;;;;;;5051393;28;20394;-68
2023/08/20 08:42:08;;;;;;;22.20;17.70;;;;;;;;;;5033718;28;20413;-68
2023/08/20 08:44:34;;;;;;;21.27;18.55;;;;;;;;;;5051679;28;20385;-68
2023/08/20 08:47:02;;;;;;;22.10;18.73;;;;;;;;;;5051844;28;20374;-69
2023/08/20 08:49:29;;;;;;;23.13;18.30;;;;;;;;;;5056008;28;20888;-69
2023/08/20 08:51:57;;;;;;;23.13;18.53;;;;;;;;;;5055506;28;20775;-68
2023/08/20 08:54:24;;;;;;;19.77;17.75;;;;;;;;;;5055793;28;20759;-69
2023/08/20 08:56:50;;;;;;;19.63;17.52;;;;;;;;;;5037807;28;20412;-69
2023/08/20 08:59:16;;;;;;;24.75;22.15;;;;;;;;;;5055859;28;20377;-69
2023/08/20 09:01:42;;;;;;;20.63;18.42;;;;;;;;;;5055464;28;20385;-68
2023/08/20 09:04:08;;;;;;;19.35;17.35;;;;;;;;;;5037079;28;20378;-69
2023/08/20 09:06:47;;;;;;;17.63;15.73;;;;;;;;;;5055074;28;20370;-68
2023/08/20 09:09:13;;;;;;;19.83;17.58;;;;;;;;;;5054931;28;20917;-69
2023/08/20 09:11:39;;;;;;;20.80;17.77;;;;;;;;;;5037045;28;20859;-68
2023/08/20 09:14:05;;;;;;;24.25;21.65;;;;;;;;;;5055639;28;20405;-68
2023/08/20 09:16:32;;;;;;;22.73;19.02;;;;;;;;;;5054967;28;20409;-69
2023/08/20 09:19:01;;;;;;;22.37;19.83;;;;;;;;;;5055007;28;20433;-68
2023/08/20 09:21:30;;;;;;;24.42;20.20;;;;;;;;;;5037087;28;20393;-69
2023/08/20 09:24:02;;;;;;;23.77;21.25;;;;;;;;;;5055017;28;20384;-68
2023/08/20 09:26:28;;;;;;;24.05;21.00;;;;;;;;;;5054879;28;20444;-68
2023/08/20 09:28:56;;;;;;;24.60;22.08;;;;;;;;;;5054573;28;20373;-68
2023/08/20 09:31:36;;;;;;;25.37;22.33;;;;;;;;;;5054984;28;20739;-68
2023/08/20 09:34:03;;;;;;;23.08;20.52;;;;;;;;;;5054727;28;20464;-69
2023/08/20 09:36:33;;;;;;;24.08;21.55;;;;;;;;;;5054839;28;20386;-69
2023/08/20 09:38:59;;;;;;;25.35;22.48;;;;;;;;;;5036961;28;20413;-69
2023/08/20 09:41:25;;;;;;;25.43;21.57;;;;;;;;;;5054764;28;20879;-68
2023/08/20 09:43:57;;;;;;;22.83;20.63;;;;;;;;;;5054590;28;20373;-69
2023/08/20 09:46:24;;;;;;;21.88;19.67;;;;;;;;;;5055038;28;20366;-68
2023/08/20 09:48:54;;;;;;;19.77;17.73;;;;;;;;;;5067529;22;20529;-67
2023/08/20 09:51:25;;;;;;;20.95;18.77;;;;;;;;;;5035293;28;20387;-67
2023/08/20 09:53:56;;;;;;;16.55;14.88;;;;;;;;;;5035098;28;20817;-70
2023/08/20 09:56:28;;;;;;;15.63;14.02;;;;;;;;;;5016443;28;20429;-66
2023/08/20 09:58:54;;;;;;;16.58;14.60;;;;;;;;;;5035012;28;20877;-67
2023/08/20 10:01:20;;;;;;;16.50;14.90;;;;;;;;;;5034960;28;20391;-67
2023/08/20 10:03:46;;;;;;;17.77;16.05;;;;;;;;;;5034072;28;20796;-67
2023/08/20 10:06:12;;;;;;;17.20;15.40;;;;;;;;;;5016591;28;20454;-67
2023/08/20 10:08:38;;;;;;;16.52;14.70;;;;;;;;;;5034175;28;20474;-67
2023/08/20 10:11:05;;;;;;;15.10;13.60;;;;;;;;;;5034847;28;20714;-64
2023/08/20 10:13:31;;;;;;;14.95;13.43;;;;;;;;;;5035354;28;20929;-65
2023/08/20 10:15:57;;;;;;;16.15;14.07;;;;;;;;;;5034540;28;20391;-67
2023/08/20 10:18:23;;;;;;;15.80;13.43;;;;;;;;;;5015878;28;20383;-65
2023/08/20 10:20:52;;;;;;;13.70;12.40;;;;;;;;;;5034334;28;20861;-65
2023/08/20 10:23:25;;;;;;;11.93;10.70;;;;;;;;;;5034355;28;20407;-66
2023/08/20 10:25:54;;;;;;;11.93;10.50;;;;;;;;;;5034248;28;20442;-67
2023/08/20 10:28:25;;;;;;;9.10;8.20;;;;;;;;;;5033810;28;20379;-64
2023/08/20 10:31:07;;;;;;;11.70;8.45;;;;;;;;;;5015971;28;20394;-66
2023/08/20 10:33:37;;;;;;;11.38;8.52;;;;;;;;;;5016479;28;20809;-64
2023/08/20 10:36:10;;;;;;;10.63;8.57;;;;;;;;;;5016106;28;20913;-65
2023/08/20 10:38:37;;;;;;;12.23;8.25;;;;;;;;;;5033625;28;20824;-66
2023/08/20 10:41:06;;;;;;;9.35;8.25;;;;;;;;;;5033558;28;20387;-66
2023/08/20 10:43:35;;;;;;;10.40;9.30;;;;;;;;;;5033388;28;20506;-66
2023/08/20 10:46:13;;;;;;;11.80;8.27;;;;;;;;;;5033795;28;20379;-69
2023/08/20 10:48:40;;;;;;;10.48;9.48;;;;;;;;;;5033834;28;20398;-66
2023/08/20 10:51:10;;;;;;;11.20;8.50;;;;;;;;;;5033250;28;20402;-66
2023/08/20 10:53:36;;;;;;;10.90;8.00;;;;;;;;;;5033304;28;20788;-67
2023/08/20 10:56:20;;;;;;;11.40;9.65;;;;;;;;;;5015209;28;20479;-66
2023/08/20 10:58:47;;;;;;;12.90;8.80;;;;;;;;;;5015201;28;20383;-66
2023/08/20 11:01:20;;;;;;;8.55;7.65;;;;;;;;;;5015326;28;20947;-66
2023/08/20 11:03:48;;;;;;;10.03;7.63;;;;;;;;;;5032918;28;20399;-67
2023/08/20 11:06:14;;;;;;;9.68;7.68;;;;;;;;;;5015179;28;20399;-66
2023/08/20 11:08:41;;;;;;;10.00;7.95;;;;;;;;;;5032859;28;20392;-68
2023/08/20 11:11:08;;;;;;;8.80;7.55;;;;;;;;;;5032417;28;20466;-67
2023/08/20 11:13:34;;;;;;;11.52;8.00;;;;;;;;;;5032797;28;20383;-67
2023/08/20 11:16:01;;;;;;;9.77;7.40;;;;;;;;;;5032633;28;20403;-64
2023/08/20 11:18:27;;;;;;;8.87;5.73;;;;;;;;;;5032842;28;20749;-65
2023/08/20 11:20:54;;;;;;;7.97;5.90;;;;;;;;;;5033418;28;20449;-65
2023/08/20 11:23:20;;;;;;;7.82;5.30;;;;;;;;;;5014784;28;20414;-66
2023/08/20 11:25:46;;;;;;;7.13;5.72;;;;;;;;;;5014716;28;20498;-66
2023/08/20 11:28:12;;;;;;;7.78;5.30;;;;;;;;;;5032753;28;20833;-68
2023/08/20 11:30:38;;;;;;;7.50;5.07;;;;;;;;;;5015506;28;20379;-67
2023/08/20 11:33:05;;;;;;;7.43;4.97;;;;;;;;;;5015150;28;20391;-65
2023/08/20 11:35:31;;;;;;;6.72;5.03;;;;;;;;;;5032358;28;20387;-65
2023/08/20 11:37:57;;;;;;;6.85;5.05;;;;;;;;;;5032343;28;20387;-66
2023/08/20 11:40:24;;;;;;;8.45;5.10;;;;;;;;;;5014724;28;20382;-66
2023/08/20 11:42:50;;;;;;;7.07;5.30;;;;;;;;;;5014786;28;20596;-66
2023/08/20 11:45:16;;;;;;;6.10;5.20;;;;;;;;;;5032386;28;20464;-66
2023/08/20 11:47:42;;;;;;;7.88;5.70;;;;;;;;;;5032268;28;20376;-65
2023/08/20 11:50:09;;;;;;;7.15;5.38;;;;;;;;;;5032766;28;20873;-69
2023/08/20 11:52:36;;;;;;;6.47;4.72;;;;;;;;;;5014462;28;20383;-66
2023/08/20 11:55:03;;;;;;;6.40;4.60;;;;;;;;;;5032206;28;20387;-65
2023/08/20 11:57:29;;;;;;;5.97;4.70;;;;;;;;;;5032325;28;20381;-66
2023/08/20 11:59:55;;;;;;;9.23;4.88;;;;;;;;;;5032013;28;20379;-64
2023/08/20 12:02:28;;;;;;;7.20;4.80;;;;;;;;;;5032345;28;20453;-68
2023/08/20 12:04:57;;;;;;;10.15;5.18;;;;;;;;;;5032302;28;20868;-67
2023/08/20 12:07:29;;;;;;;7.72;5.00;;;;;;;;;;5032133;28;20375;-67
2023/08/20 12:09:55;;;;;;;6.72;4.95;;;;;;;;;;5014262;28;20462;-67
2023/08/20 12:12:22;;;;;;;5.97;4.20;;;;;;;;;;5014940;28;20410;-69
2023/08/20 12:14:49;;;;;;;8.05;4.20;;;;;;;;;;5032707;28;20384;-68
2023/08/20 12:17:18;;;;;;;7.80;3.95;;;;;;;;;;5014700;28;20817;-64
2023/08/20 12:19:45;;;;;;;6.68;4.47;;;;;;;;;;5032439;28;20414;-66
2023/08/20 12:22:11;;;;;;;9.32;4.28;;;;;;;;;;5013888;28;20415;-69
2023/08/20 12:24:37;;;;;;;6.45;4.13;;;;;;;;;;5014734;28;20402;-66
2023/08/20 12:27:03;;;;;;;5.38;3.92;;;;;;;;;;5014069;28;20380;-67
2023/08/20 12:29:29;;;;;;;5.50;4.10;;;;;;;;;;5031781;28;20477;-66
2023/08/20 12:31:56;;;;;;;7.53;4.18;;;;;;;;;;5031959;28;20383;-67
2023/08/20 12:34:22;;;;;;;7.60;4.00;;;;;;;;;;5033084;28;20391;-67
2023/08/20 12:36:49;;;;;;;8.77;3.97;;;;;;;;;;5014477;28;20383;-70
2023/08/20 12:39:15;;;;;;;5.15;3.50;;;;;;;;;;5014180;28;20476;-66
2023/08/20 12:41:41;;;;;;;6.10;3.63;;;;;;;;;;5032132;28;20904;-69
2023/08/20 12:44:07;;;;;;;6.15;3.47;;;;;;;;;;5014940;28;20383;-68
2023/08/20 12:46:33;;;;;;;6.40;3.35;;;;;;;;;;5014589;28;20753;-69
2023/08/20 12:48:59;;;;;;;5.32;3.25;;;;;;;;;;5032185;28;20830;-68
2023/08/20 12:51:25;;;;;;;8.40;3.90;;;;;;;;;;5032837;28;20379;-65
2023/08/20 12:53:51;;;;;;;5.53;3.80;;;;;;;;;;5032482;28;20884;-67
2023/08/20 12:56:17;;;;;;;6.57;3.58;;;;;;;;;;5014116;28;20561;-66
2023/08/20 12:58:43;;;;;;;5.73;3.67;;;;;;;;;;5031693;28;20955;-66
2023/08/20 13:01:09;;;;;;;10.70;3.80;;;;;;;;;;5031522;28;20421;-66
2023/08/20 13:03:35;;;;;;;6.43;3.42;;;;;;;;;;5013924;28;20446;-65
2023/08/20 13:06:02;;;;;;;7.88;3.47;;;;;;;;;;5013654;28;20379;-65
2023/08/20 13:08:29;;;;;;;9.27;3.55;;;;;;;;;;5031498;28;20375;-66
2023/08/20 13:10:55;;;;;;;8.23;3.63;;;;;;;;;;5031354;28;20381;-67
2023/08/20 13:13:22;;;;;;;6.90;3.15;;;;;;;;;;5031345;28;20494;-66
2023/08/20 13:15:49;;;;;;;6.40;3.25;;;;;;;;;;5031279;28;20383;-66
2023/08/20 13:18:15;;;;;;;6.45;3.15;;;;;;;;;;5031261;28;20391;-66
2023/08/20 13:20:42;;;;;;;6.00;3.37;;;;;;;;;;5031899;28;20402;-67
2023/08/20 13:23:08;;;;;;;7.95;3.20;;;;;;;;;;5031620;28;20792;-66
2023/08/20 13:25:34;;;;;;;8.48;3.45;;;;;;;;;;5031595;28;20389;-65
2023/08/20 13:28:00;;;;;;;8.13;3.28;;;;;;;;;;5031277;28;20446;-66
2023/08/20 13:30:26;;;;;;;6.32;3.17;;;;;;;;;;5013344;28;20398;-67
2023/08/20 13:32:52;;;;;;;5.32;2.95;;;;;;;;;;5031071;28;20422;-67
2023/08/20 13:35:18;;;;;;;7.55;3.13;;;;;;;;;;5033957;28;20383;-67
2023/08/20 13:37:44;;;;;;;5.75;3.03;;;;;;;;;;5034583;28;20375;-68
2023/08/20 13:40:10;;;;;;;6.15;3.20;;;;;;;;;;5017265;28;20387;-67
2023/08/20 13:42:36;;;;;;;8.43;4.00;;;;;;;;;;5017016;28;20419;-66
2023/08/20 13:45:03;;;;;;;7.32;3.67;;;;;;;;;;5034819;28;20436;-66
2023/08/20 13:47:29;;;;;;;6.65;3.28;;;;;;;;;;5016631;28;20384;-66
2023/08/20 13:49:55;;;;;;;8.43;3.20;;;;;;;;;;5034723;28;20390;-66
2023/08/20 13:52:21;;;;;;;8.57;3.38;;;;;;;;;;5034868;28;20382;-66
2023/08/20 13:54:47;;;;;;;7.38;2.92;;;;;;;;;;5034249;28;20429;-65
2023/08/20 13:57:13;;;;;;;6.63;2.97;;;;;;;;;;5034639;28;20462;-66
2023/08/20 13:59:39;;;;;;;6.40;3.10;;;;;;;;;;5034051;28;20854;-65
2023/08/20 14:02:05;;;;;;;6.03;3.08;;;;;;;;;;5034051;28;20403;-65
2023/08/20 14:04:31;;;;;;;7.63;3.00;;;;;;;;;;5034227;28;20383;-66
2023/08/20 14:06:57;;;;;;;5.20;3.00;;;;;;;;;;5017275;28;20402;-66
2023/08/20 14:09:25;;;;;;;5.82;3.13;;;;;;;;;;5033798;28;20869;-66
2023/08/20 14:11:50;;;;;;;6.88;3.55;;;;;;;;;;5034299;28;20437;-67
2023/08/20 14:14:16;;;;;;;7.35;3.17;;;;;;;;;;5034472;28;20382;-66
2023/08/20 14:16:42;;;;;;;6.07;2.90;;;;;;;;;;5033773;28;20403;-66
2023/08/20 14:19:08;;;;;;;5.03;3.20;;;;;;;;;;5015946;28;20411;-66
2023/08/20 14:21:34;;;;;;;5.88;2.95;;;;;;;;;;5033779;28;20379;-66
2023/08/20 14:24:00;;;;;;;7.07;2.72;;;;;;;;;;5015867;28;20916;-67